Time;durP1;ratioP1;P1;durP2;ratioP2;P2;SDS_P1;SDS_P2;PMS_P1;PMS_P2;Temp;Humidity;BMP_temperature;BMP_pressure;BME280_temperature;BME280_humidity;BME280_pressure;Samples;Min_cycle;Max_cycle;Signal;HPM_P1;HPM_P2
2021/09/21 00:01:13;;;;;;;4.23;2.30;;;12.20;99.90;;;;;;5012431;28;20447;-69
2021/09/21 00:03:43;;;;;;;2.50;2.27;;;12.20;99.90;;;;;;5012678;28;20275;-69
2021/09/21 00:06:09;;;;;;;3.43;2.60;;;12.20;99.90;;;;;;5012498;28;20434;-70
2021/09/21 00:08:36;;;;;;;2.60;2.13;;;12.20;99.90;;;;;;5012537;28;20411;-70
2021/09/21 00:11:02;;;;;;;2.20;2.00;;;12.10;99.90;;;;;;5012572;28;20203;-70
2021/09/21 00:13:29;;;;;;;2.43;2.03;;;12.10;99.90;;;;;;5012564;28;20418;-70
2021/09/21 00:15:58;;;;;;;3.07;2.50;;;12.10;99.90;;;;;;5012058;28;20454;-69
2021/09/21 00:18:25;;;;;;;2.17;1.80;;;12.10;99.90;;;;;;5012098;28;20930;-69
2021/09/21 00:20:50;;;;;;;3.53;2.70;;;12.10;99.90;;;;;;5011913;28;20415;-69
2021/09/21 00:23:16;;;;;;;3.03;2.30;;;12.10;99.90;;;;;;5012069;28;20874;-70
2021/09/21 00:25:42;;;;;;;2.20;2.00;;;12.10;99.90;;;;;;5011883;28;20189;-70
2021/09/21 00:28:10;;;;;;;2.23;2.03;;;12.10;99.90;;;;;;5011986;28;20541;-70
2021/09/21 00:30:46;;;;;;;3.20;2.40;;;12.10;99.90;;;;;;5011933;28;20652;-70
2021/09/21 00:33:20;;;;;;;4.00;3.60;;;12.10;99.90;;;;;;5011678;28;20433;-70
2021/09/21 00:35:51;;;;;;;2.77;2.03;;;12.10;99.90;;;;;;5011623;28;20553;-70
2021/09/21 00:38:18;;;;;;;2.57;2.20;;;12.10;99.90;;;;;;5011858;28;20399;-70
2021/09/21 00:40:45;;;;;;;3.30;2.53;;;12.10;99.90;;;;;;5011724;28;20407;-71
2021/09/21 00:43:11;;;;;;;3.03;2.10;;;12.10;99.90;;;;;;5011615;28;20410;-71
2021/09/21 00:45:40;;;;;;;2.10;1.93;;;12.00;99.90;;;;;;5011703;28;20435;-70
2021/09/21 00:48:06;;;;;;;3.90;2.33;;;12.00;99.90;;;;;;4993916;28;20710;-71
2021/09/21 00:50:37;;;;;;;2.90;2.50;;;12.00;99.90;;;;;;5011818;28;20415;-70
2021/09/21 00:53:02;;;;;;;2.70;2.00;;;12.00;99.90;;;;;;4994818;28;20498;-69
2021/09/21 00:55:29;;;;;;;2.07;1.90;;;12.00;99.90;;;;;;5011926;28;20921;-70
2021/09/21 00:57:54;;;;;;;2.40;1.93;;;12.00;99.90;;;;;;4993877;28;20414;-70
2021/09/21 01:00:24;;;;;;;2.33;1.97;;;12.00;99.90;;;;;;5011534;28;20403;-70
2021/09/21 01:02:50;;;;;;;1.53;1.40;;;12.00;99.90;;;;;;5011464;28;20168;-69
2021/09/21 01:05:16;;;;;;;3.23;2.00;;;12.00;99.90;;;;;;5011484;28;20826;-71
2021/09/21 01:07:43;;;;;;;2.27;2.07;;;12.00;99.90;;;;;;5011633;28;20522;-70
2021/09/21 01:10:19;;;;;;;2.60;2.40;;;12.00;99.90;;;;;;5011454;28;20172;-71
2021/09/21 01:12:45;;;;;;;3.40;2.27;;;12.10;99.90;;;;;;5011396;28;20768;-70
2021/09/21 01:15:11;;;;;;;1.70;1.60;;;12.10;99.90;;;;;;5011119;28;20431;-71
2021/09/21 01:17:37;;;;;;;2.17;1.80;;;12.10;99.90;;;;;;5011151;28;21022;-71
2021/09/21 01:20:10;;;;;;;2.77;1.73;;;12.10;99.90;;;;;;5011372;28;20411;-71
2021/09/21 01:22:36;;;;;;;3.10;2.53;;;12.10;99.90;;;;;;5011479;28;20444;-70
2021/09/21 01:25:03;;;;;;;2.80;2.13;;;12.10;99.90;;;;;;5011205;28;21006;-70
2021/09/21 01:27:49;;;;;;;3.20;2.67;;;12.10;99.90;;;;;;5014260;28;20403;-70
2021/09/21 01:30:15;;;;;;;3.17;1.97;;;12.10;99.90;;;;;;5015269;28;20407;-70
2021/09/21 01:32:41;;;;;;;2.47;2.27;;;12.10;99.90;;;;;;5015180;28;20404;-71
2021/09/21 01:35:12;;;;;;;2.27;1.80;;;12.10;99.90;;;;;;5015009;28;20433;-69
2021/09/21 01:37:40;;;;;;;2.00;1.77;;;12.10;99.90;;;;;;5015254;28;20415;-70
2021/09/21 01:40:06;;;;;;;3.03;2.40;;;12.10;99.90;;;;;;5015121;28;20506;-69
2021/09/21 01:42:39;;;;;;;2.90;2.00;;;12.10;99.90;;;;;;5015228;28;20422;-70
2021/09/21 01:45:05;;;;;;;2.00;1.67;;;12.10;99.90;;;;;;5012780;28;20435;-69
2021/09/21 01:47:30;;;;;;;3.03;2.70;;;12.00;99.90;;;;;;5013208;28;20414;-69
2021/09/21 01:52:28;;;;;;;2.00;1.73;;;12.00;99.90;;;;;;5015287;28;20274;-70
2021/09/21 02:00:06;;;;;;;2.33;1.90;;;12.00;99.90;;;;;;5015411;28;20183;-70
2021/09/21 02:02:35;;;;;;;2.30;1.90;;;12.00;99.90;;;;;;5014818;28;20597;-69
2021/09/21 02:05:00;;;;;;;2.20;2.00;;;12.00;99.90;;;;;;5014833;28;20904;-70
2021/09/21 02:07:26;;;;;;;3.27;2.60;;;12.00;99.90;;;;;;5015012;28;20426;-70
2021/09/21 02:09:51;;;;;;;2.30;1.40;;;12.00;99.90;;;;;;5014628;28;20528;-70
2021/09/21 02:12:17;;;;;;;3.50;1.97;;;11.90;99.90;;;;;;5014741;28;20173;-69
2021/09/21 02:14:42;;;;;;;3.30;1.57;;;12.00;99.90;;;;;;5014828;28;20202;-70
2021/09/21 02:17:08;;;;;;;2.30;2.10;;;11.90;99.90;;;;;;5014549;28;20550;-70
2021/09/21 02:19:33;;;;;;;2.70;1.97;;;11.90;99.90;;;;;;5014389;28;20184;-70
2021/09/21 02:21:59;;;;;;;4.60;2.20;;;11.90;99.90;;;;;;5014672;28;20200;-69
2021/09/21 02:24:24;;;;;;;2.20;2.00;;;11.90;99.90;;;;;;5014324;28;20192;-70
2021/09/21 02:26:51;;;;;;;3.10;2.17;;;11.90;99.90;;;;;;5014468;28;20612;-69
2021/09/21 02:29:16;;;;;;;2.47;1.70;;;11.90;99.90;;;;;;4996589;28;20211;-72
2021/09/21 02:32:08;;;;;;;2.63;1.70;;;11.90;99.90;;;;;;5014193;28;20496;-69
2021/09/21 02:34:33;;;;;;;2.40;2.20;;;11.90;99.90;;;;;;5014088;28;20196;-69
2021/09/21 02:36:59;;;;;;;2.53;2.33;;;11.90;99.90;;;;;;4995993;28;20582;-70
2021/09/21 02:39:24;;;;;;;2.20;1.70;;;11.90;99.90;;;;;;5014079;28;20173;-70
2021/09/21 02:41:50;;;;;;;3.47;2.00;;;11.90;99.90;;;;;;5013990;28;20173;-68
2021/09/21 02:44:21;;;;;;;4.83;2.00;;;11.90;99.90;;;;;;5014317;28;20721;-70
2021/09/21 02:46:51;;;;;;;1.80;1.47;;;11.90;99.90;;;;;;5014586;28;20180;-70
2021/09/21 02:49:16;;;;;;;2.23;1.90;;;11.90;99.90;;;;;;5014588;28;20408;-70
2021/09/21 02:51:41;;;;;;;3.00;2.70;;;11.90;99.90;;;;;;5014247;28;20886;-70
2021/09/21 02:54:07;;;;;;;3.07;2.60;;;11.90;99.90;;;;;;5014448;28;20172;-71
2021/09/21 02:56:35;;;;;;;3.00;2.23;;;11.90;99.90;;;;;;5014274;28;20200;-68
2021/09/21 02:59:01;;;;;;;2.93;2.70;;;11.90;99.90;;;;;;5014391;28;20630;-71
2021/09/21 03:01:26;;;;;;;4.00;2.83;;;11.90;99.90;;;;;;5014448;28;20428;-69
2021/09/21 03:03:55;;;;;;;3.07;2.27;;;11.90;99.90;;;;;;5014408;28;20643;-68
2021/09/21 03:06:28;;;;;;;3.50;2.03;;;11.90;99.90;;;;;;5014725;28;20195;-69
2021/09/21 03:09:23;;;;;;;2.33;2.00;;;11.90;99.90;;;;;;5014645;28;20449;-70
2021/09/21 03:11:49;;;;;;;1.83;1.53;;;11.90;99.90;;;;;;5013802;28;20415;-69
2021/09/21 03:19:43;;;;;;;3.00;1.93;;;11.90;99.90;;;;;;5015577;28;20422;-70
2021/09/21 03:22:08;;;;;;;2.70;2.10;;;11.90;99.90;;;;;;5015236;28;20403;-70
2021/09/21 03:24:34;;;;;;;2.13;1.93;;;11.80;99.90;;;;;;5015285;28;20188;-71
2021/09/21 03:26:59;;;;;;;3.03;2.67;;;11.80;99.90;;;;;;5013528;28;20176;-69
2021/09/21 03:29:26;;;;;;;3.00;2.50;;;11.80;99.90;;;;;;5013466;28;20271;-70
2021/09/21 03:31:55;;;;;;;3.00;1.90;;;11.90;99.90;;;;;;5013443;28;20542;-70
2021/09/21 03:34:20;;;;;;;3.13;2.10;;;11.90;99.90;;;;;;5013186;28;20423;-70
2021/09/21 03:36:46;;;;;;;1.97;1.40;;;11.90;99.90;;;;;;5013056;28;20462;-70
2021/09/21 03:39:11;;;;;;;4.40;2.70;;;11.90;99.90;;;;;;5013369;28;20172;-70
2021/09/21 03:41:37;;;;;;;2.10;1.90;;;11.90;99.90;;;;;;5012663;28;20588;-70
2021/09/21 03:44:05;;;;;;;2.93;2.63;;;11.80;99.90;;;;;;5011936;28;20172;-71
2021/09/21 03:46:31;;;;;;;2.80;2.07;;;11.80;99.90;;;;;;5012538;28;20179;-70
2021/09/21 03:48:56;;;;;;;4.50;2.20;;;11.80;99.90;;;;;;5011817;28;20416;-70
2021/09/21 03:51:26;;;;;;;3.10;2.43;;;11.80;99.90;;;;;;5012511;28;20173;-69
2021/09/21 03:53:54;;;;;;;2.00;1.50;;;11.80;99.90;;;;;;5012499;28;20551;-70
2021/09/21 03:56:20;;;;;;;2.60;1.87;;;11.80;99.90;;;;;;5011687;28;20463;-70
2021/09/21 03:58:45;;;;;;;2.13;1.93;;;11.80;99.90;;;;;;5012512;28;20874;-69
2021/09/21 04:01:13;;;;;;;3.23;2.93;;;11.80;99.90;;;;;;5012396;28;20165;-69
2021/09/21 04:03:42;;;;;;;2.20;2.00;;;11.80;99.90;;;;;;5012682;28;20203;-68
2021/09/21 04:06:07;;;;;;;3.50;2.60;;;11.80;99.90;;;;;;5012426;28;20837;-70
2021/09/21 04:08:33;;;;;;;4.80;2.63;;;11.70;99.90;;;;;;5012359;28;20446;-69
2021/09/21 04:10:58;;;;;;;3.07;2.27;;;11.70;99.90;;;;;;5012462;28;20651;-70
2021/09/21 04:13:24;;;;;;;2.00;1.80;;;11.70;99.90;;;;;;5012256;28;20242;-70
2021/09/21 04:15:49;;;;;;;2.40;2.20;;;11.70;99.90;;;;;;4994576;28;20208;-72
2021/09/21 04:18:15;;;;;;;2.13;1.93;;;11.70;99.90;;;;;;5012042;28;20195;-70
2021/09/21 04:20:41;;;;;;;3.27;2.13;;;11.70;99.90;;;;;;5012150;28;20638;-69
2021/09/21 04:23:08;;;;;;;1.97;1.70;;;11.60;99.90;;;;;;5011993;28;20172;-70
2021/09/21 04:25:36;;;;;;;4.50;2.53;;;11.60;99.90;;;;;;5012081;28;20925;-69
2021/09/21 04:28:04;;;;;;;3.30;1.90;;;11.60;99.90;;;;;;5012074;28;20429;-69
2021/09/21 04:30:33;;;;;;;3.23;2.13;;;11.60;99.90;;;;;;5011868;28;20404;-70
2021/09/21 04:32:58;;;;;;;2.40;2.20;;;11.60;99.90;;;;;;5011903;28;20723;-70
2021/09/21 04:35:24;;;;;;;4.63;2.57;;;11.60;99.90;;;;;;5011532;28;20423;-69
2021/09/21 04:37:50;;;;;;;2.50;2.20;;;11.60;99.90;;;;;;5011931;28;20365;-69
2021/09/21 04:40:15;;;;;;;2.50;2.30;;;11.60;99.90;;;;;;5010742;28;20189;-70
2021/09/21 04:42:41;;;;;;;3.10;2.50;;;11.60;99.90;;;;;;5011709;28;20403;-71
2021/09/21 04:45:08;;;;;;;2.93;2.20;;;11.60;99.90;;;;;;5011437;28;20195;-69
2021/09/21 04:47:33;;;;;;;2.37;2.17;;;11.60;99.90;;;;;;4994139;28;20172;-69
2021/09/21 04:49:59;;;;;;;4.83;2.83;;;11.60;99.90;;;;;;5011814;28;20749;-70
2021/09/21 04:52:24;;;;;;;3.63;2.70;;;11.60;99.90;;;;;;5011707;28;20722;-69
2021/09/21 04:54:50;;;;;;;2.53;2.17;;;11.60;99.90;;;;;;5011501;28;20208;-69
2021/09/21 04:57:16;;;;;;;4.17;2.83;;;11.60;99.90;;;;;;5011449;28;20546;-69
2021/09/21 04:59:42;;;;;;;4.20;2.20;;;11.60;99.90;;;;;;5011322;28;20655;-69
2021/09/21 05:02:07;;;;;;;3.47;2.90;;;11.70;99.90;;;;;;5011466;28;20411;-70
2021/09/21 05:04:33;;;;;;;3.17;2.10;;;11.70;99.90;;;;;;5011669;28;20191;-70
2021/09/21 05:06:58;;;;;;;2.80;2.23;;;11.70;99.90;;;;;;5011739;28;20536;-70
2021/09/21 05:09:24;;;;;;;2.30;2.10;;;11.70;99.90;;;;;;5011525;28;20582;-70
2021/09/21 05:11:49;;;;;;;2.40;2.20;;;11.70;99.90;;;;;;5011574;28;20173;-69
2021/09/21 05:14:15;;;;;;;3.13;2.40;;;11.70;99.90;;;;;;4993774;28;20172;-69
2021/09/21 05:16:41;;;;;;;3.90;2.80;;;11.70;99.90;;;;;;5011392;28;20208;-70
2021/09/21 05:19:11;;;;;;;3.20;2.40;;;11.70;99.90;;;;;;5011279;28;20180;-69
2021/09/21 05:21:39;;;;;;;4.73;2.40;;;11.80;99.90;;;;;;5011458;28;20410;-69
2021/09/21 05:24:06;;;;;;;2.73;2.53;;;11.80;99.90;;;;;;5011083;28;20408;-69
2021/09/21 05:26:31;;;;;;;3.30;2.60;;;11.80;99.90;;;;;;5011357;28;20470;-71
2021/09/21 05:28:57;;;;;;;2.50;1.97;;;11.80;99.90;;;;;;5011375;28;21114;-69
2021/09/21 05:31:23;;;;;;;3.13;2.50;;;11.90;99.90;;;;;;5011291;28;20255;-70
2021/09/21 05:33:51;;;;;;;3.17;2.87;;;11.90;99.90;;;;;;5011227;28;20481;-70
2021/09/21 05:36:16;;;;;;;2.47;2.27;;;11.90;99.90;;;;;;5011535;28;20272;-71
2021/09/21 05:38:42;;;;;;;1.87;1.77;;;12.00;99.90;;;;;;5011301;28;21028;-70
2021/09/21 05:41:07;;;;;;;4.13;2.80;;;12.00;99.90;;;;;;5011048;28;20168;-71
2021/09/21 05:43:33;;;;;;;4.23;2.80;;;12.10;99.90;;;;;;5011085;28;20180;-70
2021/09/21 05:45:59;;;;;;;3.07;2.00;;;12.00;99.90;;;;;;5011007;28;20188;-69
2021/09/21 05:48:24;;;;;;;3.20;2.90;;;12.10;99.90;;;;;;5011321;28;20407;-69
2021/09/21 05:50:50;;;;;;;4.10;3.00;;;12.10;99.90;;;;;;5011143;28;20179;-70
2021/09/21 05:53:18;;;;;;;2.80;2.50;;;12.20;99.90;;;;;;5010859;28;20211;-69
2021/09/21 05:55:44;;;;;;;3.73;2.13;;;12.20;99.90;;;;;;5010678;28;20520;-70
2021/09/21 05:58:10;;;;;;;3.83;2.20;;;12.30;99.90;;;;;;5010977;28;20469;-69
2021/09/21 06:00:38;;;;;;;3.03;2.20;;;12.30;99.90;;;;;;5010954;28;20169;-70
2021/09/21 06:03:07;;;;;;;2.80;2.43;;;12.40;99.90;;;;;;5010903;28;20462;-70
2021/09/21 06:05:32;;;;;;;3.10;2.27;;;12.40;99.90;;;;;;5010871;28;20427;-70
2021/09/21 06:07:58;;;;;;;6.37;2.73;;;12.50;99.90;;;;;;5010972;28;20480;-70
2021/09/21 06:10:25;;;;;;;3.13;2.83;;;12.60;99.90;;;;;;4994787;28;20180;-72
2021/09/21 06:12:51;;;;;;;2.83;2.40;;;12.70;99.90;;;;;;4998689;28;20172;-74
2021/09/21 06:15:19;;;;;;;3.07;2.30;;;12.60;99.90;;;;;;5017890;28;20424;-72
2021/09/21 06:17:46;;;;;;;2.53;2.30;;;12.70;99.90;;;;;;5017696;28;20470;-72
2021/09/21 06:20:17;;;;;;;3.20;2.57;;;12.70;99.90;;;;;;4999846;28;20404;-72
2021/09/21 06:22:44;;;;;;;4.27;2.67;;;12.80;99.90;;;;;;5017038;28;20411;-72
2021/09/21 06:25:11;;;;;;;3.70;2.83;;;12.90;99.90;;;;;;5017324;28;20497;-72
2021/09/21 06:27:37;;;;;;;4.17;3.43;;;12.90;99.90;;;;;;5017707;28;20411;-72
2021/09/21 06:30:05;;;;;;;4.13;2.97;;;12.90;99.90;;;;;;5018249;28;20506;-72
2021/09/21 06:32:31;;;;;;;3.83;3.20;;;13.00;99.90;;;;;;4999941;28;20518;-72
2021/09/21 06:34:57;;;;;;;3.43;2.60;;;12.90;99.90;;;;;;5017192;28;20459;-72
2021/09/21 06:37:22;;;;;;;3.03;2.50;;;13.10;99.90;;;;;;5016994;28;20481;-72
2021/09/21 06:39:50;;;;;;;2.60;2.40;;;13.20;99.90;;;;;;5016584;28;20252;-71
2021/09/21 06:42:19;;;;;;;4.33;3.00;;;13.20;99.90;;;;;;5017350;28;20164;-72
2021/09/21 06:44:47;;;;;;;3.40;2.33;;;13.30;99.90;;;;;;5017320;28;20446;-72
2021/09/21 06:47:13;;;;;;;3.80;2.73;;;13.40;99.90;;;;;;5015860;28;20458;-74
2021/09/21 06:49:38;;;;;;;2.77;2.53;;;13.40;99.90;;;;;;5017363;28;20442;-72
2021/09/21 06:52:04;;;;;;;4.00;3.00;;;13.40;99.90;;;;;;5016389;28;20707;-71
2021/09/21 06:54:30;;;;;;;2.87;2.60;;;13.50;99.90;;;;;;5015814;28;20200;-74
2021/09/21 06:56:55;;;;;;;3.67;2.40;;;13.70;99.90;;;;;;5015308;28;20208;-72
2021/09/21 06:59:24;;;;;;;2.67;1.90;;;13.70;99.90;;;;;;5015091;28;20173;-72
2021/09/21 07:01:49;;;;;;;3.70;2.50;;;13.70;99.90;;;;;;4997336;28;20526;-71
2021/09/21 07:04:16;;;;;;;3.43;2.50;;;13.70;99.90;;;;;;5015037;28;20411;-74
2021/09/21 07:06:41;;;;;;;2.57;2.10;;;13.80;99.90;;;;;;5015111;28;20187;-71
2021/09/21 07:09:07;;;;;;;2.50;2.30;;;14.00;99.90;;;;;;5015438;28;20407;-72
2021/09/21 07:11:32;;;;;;;2.40;2.20;;;14.00;99.90;;;;;;5014691;28;20181;-71
2021/09/21 07:13:58;;;;;;;2.23;2.03;;;14.20;99.90;;;;;;5014555;28;20541;-72
2021/09/21 07:16:23;;;;;;;4.50;2.97;;;14.60;99.90;;;;;;5014900;28;20284;-72
2021/09/21 07:18:49;;;;;;;3.03;2.83;;;14.30;99.90;;;;;;5014927;28;20188;-72
2021/09/21 07:21:14;;;;;;;2.77;2.57;;;14.50;99.90;;;;;;5013793;28;20613;-72
2021/09/21 07:23:40;;;;;;;6.53;2.63;;;14.30;99.90;;;;;;5013275;28;20174;-72
2021/09/21 07:26:08;;;;;;;2.73;2.50;;;14.30;99.90;;;;;;5013999;28;20194;-72
2021/09/21 07:28:35;;;;;;;3.90;2.30;;;14.60;99.90;;;;;;5013828;28;20177;-72
2021/09/21 07:31:04;;;;;;;2.57;2.23;;;14.30;99.90;;;;;;5014175;28;20410;-69
2021/09/21 07:33:29;;;;;;;2.10;1.90;;;14.60;99.90;;;;;;5013927;28;20410;-72
2021/09/21 07:35:55;;;;;;;2.53;1.80;;;14.80;99.90;;;;;;5013196;28;20568;-71
2021/09/21 07:38:21;;;;;;;2.20;1.83;;;15.20;99.90;;;;;;5013782;28;20172;-72
2021/09/21 07:40:47;;;;;;;2.33;2.00;;;15.40;99.90;;;;;;5013368;28;20181;-72
2021/09/21 07:43:13;;;;;;;2.40;1.50;;;15.50;99.90;;;;;;5013755;28;20163;-73
2021/09/21 07:45:38;;;;;;;1.50;1.33;;;15.70;99.90;;;;;;5013735;28;21012;-72
2021/09/21 07:48:07;;;;;;;2.20;2.00;;;15.60;99.90;;;;;;5014239;28;20171;-72
2021/09/21 07:50:36;;;;;;;2.77;2.10;;;15.60;99.90;;;;;;5013531;28;20578;-72
2021/09/21 07:53:02;;;;;;;2.30;2.10;;;15.80;99.90;;;;;;5013304;28;20426;-72
2021/09/21 07:55:28;;;;;;;2.17;1.83;;;16.20;99.90;;;;;;4996208;28;20464;-72
2021/09/21 07:58:02;;;;;;;2.33;1.80;;;16.40;99.90;;;;;;5014041;28;20416;-72
2021/09/21 08:00:40;;;;;;;2.10;1.80;;;16.50;99.90;;;;;;4996541;28;20235;-72
2021/09/21 08:03:08;;;;;;;2.10;1.73;;;15.90;99.90;;;;;;5014450;28;20799;-72
2021/09/21 08:05:35;;;;;;;1.70;1.60;;;16.00;99.90;;;;;;5014083;28;20481;-72
2021/09/21 08:08:01;;;;;;;1.87;1.60;;;16.30;99.90;;;;;;4980134;28;20407;-72
2021/09/21 08:10:29;;;;;;;2.77;1.83;;;16.50;99.90;;;;;;4995963;28;20533;-72
2021/09/21 08:12:55;;;;;;;2.10;1.57;;;16.60;99.90;;;;;;5013844;28;20161;-72
2021/09/21 08:15:21;;;;;;;1.97;1.50;;;16.70;99.90;;;;;;4995006;28;20458;-71
2021/09/21 08:17:46;;;;;;;1.87;1.47;;;16.20;99.90;;;;;;5013289;28;20207;-73
2021/09/21 08:20:13;;;;;;;1.77;1.63;;;16.00;99.90;;;;;;4995101;28;20212;-72
2021/09/21 08:22:39;;;;;;;1.73;1.63;;;16.00;99.90;;;;;;5012714;28;20757;-70
2021/09/21 08:25:06;;;;;;;1.50;1.40;;;16.40;99.90;;;;;;5012230;28;20959;-71
2021/09/21 08:27:33;;;;;;;2.47;1.53;;;17.00;99.90;;;;;;5012409;28;20407;-71
2021/09/21 08:29:59;;;;;;;3.20;1.60;;;17.60;99.90;;;;;;5012745;28;20960;-70
2021/09/21 08:32:26;;;;;;;1.73;1.40;;;18.10;99.90;;;;;;4994826;28;20426;-72
2021/09/21 08:34:52;;;;;;;1.63;1.53;;;18.30;99.90;;;;;;5011994;28;20423;-72
2021/09/21 08:37:18;;;;;;;1.30;1.20;;;18.00;99.90;;;;;;5013374;28;20472;-72
2021/09/21 08:39:43;;;;;;;2.03;1.93;;;18.40;99.90;;;;;;4995562;28;20186;-72
2021/09/21 08:42:09;;;;;;;2.03;1.67;;;18.60;99.90;;;;;;5012046;28;20220;-72
2021/09/21 08:44:37;;;;;;;1.43;1.30;;;18.80;99.90;;;;;;5012150;28;20194;-71
2021/09/21 08:47:04;;;;;;;1.43;1.23;;;19.60;99.90;;;;;;5012904;28;20178;-72
2021/09/21 08:49:29;;;;;;;1.53;1.30;;;19.40;99.90;;;;;;4995173;28;20441;-71
2021/09/21 08:51:55;;;;;;;1.93;1.77;;;19.40;99.90;;;;;;4994350;28;20438;-71
2021/09/21 08:54:23;;;;;;;2.03;1.70;;;18.20;99.90;;;;;;5012153;28;20669;-72
2021/09/21 08:56:49;;;;;;;3.60;1.80;;;19.00;99.90;;;;;;5012287;28;20197;-73
2021/09/21 08:59:15;;;;;;;2.00;1.60;;;18.70;99.90;;;;;;5012035;28;20425;-73
2021/09/21 09:01:44;;;;;;;2.20;1.93;;;19.40;99.90;;;;;;5012230;28;20190;-71
2021/09/21 09:04:11;;;;;;;1.40;1.30;;;19.30;99.90;;;;;;5012067;28;20406;-71
2021/09/21 09:06:49;;;;;;;1.60;1.50;;;18.30;99.90;;;;;;5012319;28;20422;-73
2021/09/21 09:09:17;;;;;;;1.57;1.47;;;18.10;99.90;;;;;;5012255;28;20759;-74
2021/09/21 09:11:48;;;;;;;1.60;1.50;;;18.90;99.90;;;;;;5012611;28;20407;-72
2021/09/21 09:14:38;;;;;;;2.50;1.83;;;19.30;99.90;;;;;;5012131;28;20774;-73
2021/09/21 09:17:11;;;;;;;5.20;1.30;;;18.20;99.90;;;;;;5012312;28;20546;-73
2021/09/21 09:19:40;;;;;;;1.40;1.30;;;17.40;99.90;;;;;;5012137;28;20731;-72
2021/09/21 09:22:06;;;;;;;1.57;1.30;;;18.20;99.90;;;;;;5012141;28;20388;-73
2021/09/21 09:24:44;;;;;;;1.83;1.73;;;17.70;99.90;;;;;;5012475;28;20455;-72
2021/09/21 09:27:10;;;;;;;1.40;1.30;;;17.40;99.90;;;;;;5012914;28;20395;-72
2021/09/21 09:29:57;;;;;;;1.57;1.47;;;17.60;99.90;;;;;;5012737;28;20415;-72
2021/09/21 09:32:22;;;;;;;2.67;1.70;;;17.80;99.90;;;;;;5012501;28;20174;-70
2021/09/21 09:34:50;;;;;;;1.67;1.30;;;18.00;99.90;;;;;;5012768;28;20476;-71
2021/09/21 09:37:18;;;;;;;1.70;1.60;;;17.30;99.90;;;;;;5013485;28;20201;-72
2021/09/21 09:39:45;;;;;;;2.83;1.20;;;17.80;99.90;;;;;;4995864;28;20463;-71
2021/09/21 09:42:12;;;;;;;2.07;1.80;;;18.40;99.90;;;;;;5013228;28;20501;-72
2021/09/21 09:44:39;;;;;;;1.47;1.37;;;18.40;99.90;;;;;;5011971;28;20447;-71
2021/09/21 09:47:06;;;;;;;2.20;1.80;;;18.20;99.90;;;;;;5013050;28;20457;-72
2021/09/21 09:49:35;;;;;;;3.70;1.67;;;17.90;99.90;;;;;;5016214;28;20709;-71
2021/09/21 09:52:12;;;;;;;1.77;1.60;;;17.50;99.90;;;;;;5017591;28;20414;-72
2021/09/21 09:54:40;;;;;;;3.00;1.67;;;17.80;99.90;;;;;;5017276;28;20513;-72
2021/09/21 09:57:06;;;;;;;2.53;1.83;;;18.10;99.90;;;;;;5017517;28;20444;-71
2021/09/21 09:59:33;;;;;;;1.77;1.67;;;17.70;99.90;;;;;;5017086;28;20771;-72
2021/09/21 10:02:02;;;;;;;2.33;2.10;;;17.80;99.90;;;;;;4999375;28;20414;-72
2021/09/21 10:04:28;;;;;;;1.77;1.67;;;17.80;99.90;;;;;;5016841;28;20448;-72
2021/09/21 10:06:55;;;;;;;2.80;2.13;;;17.10;99.90;;;;;;5016769;28;20924;-71
2021/09/21 10:09:21;;;;;;;2.40;1.90;;;17.40;99.90;;;;;;5017610;28;20439;-72
2021/09/21 10:11:50;;;;;;;2.03;1.83;;;17.90;99.90;;;;;;5017148;28;20909;-72
2021/09/21 10:14:19;;;;;;;3.20;1.93;;;17.70;99.90;;;;;;5016841;28;20420;-73
2021/09/21 10:16:49;;;;;;;3.20;2.50;;;18.10;99.90;;;;;;5016874;28;20455;-71
2021/09/21 10:19:19;;;;;;;2.10;1.40;;;17.30;99.90;;;;;;5017470;28;20428;-72
2021/09/21 10:21:46;;;;;;;3.47;1.90;;;16.80;99.90;;;;;;5017451;28;20411;-71
2021/09/21 10:24:12;;;;;;;1.60;1.50;;;16.80;99.90;;;;;;5016955;28;20409;-70
2021/09/21 10:26:49;;;;;;;1.60;1.50;;;16.70;99.90;;;;;;5017339;28;20564;-72
2021/09/21 10:29:14;;;;;;;1.70;1.60;;;16.70;99.90;;;;;;5017660;28;20193;-71
2021/09/21 10:31:41;;;;;;;2.27;1.83;;;17.00;99.90;;;;;;5017526;28;20407;-71
2021/09/21 10:34:16;;;;;;;2.13;1.93;;;17.10;99.90;;;;;;5016722;28;20580;-71
2021/09/21 10:36:53;;;;;;;2.43;1.60;;;17.40;99.90;;;;;;5016900;28;20771;-72
2021/09/21 10:39:20;;;;;;;1.50;1.40;;;17.40;99.90;;;;;;4998590;28;20415;-71
2021/09/21 10:41:58;;;;;;;1.57;1.43;;;17.10;99.90;;;;;;5016179;28;20412;-72
2021/09/21 10:44:24;;;;;;;1.60;1.40;;;17.30;99.90;;;;;;5015434;28;20444;-72
2021/09/21 10:46:52;;;;;;;1.80;1.70;;;16.90;99.90;;;;;;5015498;28;20409;-72
2021/09/21 10:49:48;;;;;;;1.70;1.60;;;16.70;99.90;;;;;;5014968;28;20408;-71
2021/09/21 10:52:16;;;;;;;1.63;1.27;;;16.80;99.90;;;;;;5012230;28;20484;-72
2021/09/21 10:54:43;;;;;;;1.73;1.53;;;17.20;99.90;;;;;;5016983;28;20434;-72
2021/09/21 10:57:38;;;;;;;2.00;1.77;;;17.00;99.90;;;;;;5016532;28;20540;-72
2021/09/21 11:00:10;;;;;;;2.77;2.57;;;16.60;99.90;;;;;;5016079;28;20486;-72
2021/09/21 11:02:41;;;;;;;2.50;2.00;;;16.40;99.90;;;;;;5016441;28;20453;-71
2021/09/21 11:05:10;;;;;;;1.77;1.67;;;16.60;99.90;;;;;;5016782;28;20422;-72
2021/09/21 11:07:37;;;;;;;1.87;1.50;;;16.50;99.90;;;;;;5017056;28;20405;-72
2021/09/21 11:10:05;;;;;;;1.80;1.43;;;16.30;99.90;;;;;;5017307;28;20409;-72
2021/09/21 11:12:31;;;;;;;2.17;1.80;;;16.60;99.90;;;;;;5015630;28;20560;-72
2021/09/21 11:15:05;;;;;;;2.13;2.00;;;16.70;99.90;;;;;;4998279;28;20488;-72
2021/09/21 11:17:30;;;;;;;1.70;1.30;;;16.40;99.90;;;;;;5016152;28;20463;-72
2021/09/21 11:19:57;;;;;;;2.80;1.37;;;16.30;99.90;;;;;;5015321;28;20831;-72
2021/09/21 11:22:28;;;;;;;1.70;1.60;;;16.00;99.90;;;;;;4998088;28;20170;-72
2021/09/21 11:25:05;;;;;;;1.57;1.47;;;15.90;99.90;;;;;;5016325;28;20423;-71
2021/09/21 11:27:32;;;;;;;2.63;1.53;;;16.00;99.90;;;;;;5016006;28;20451;-72
2021/09/21 11:30:07;;;;;;;1.53;1.43;;;16.10;99.90;;;;;;4999036;28;20455;-70
2021/09/21 11:32:32;;;;;;;2.43;1.60;;;16.00;99.90;;;;;;5016883;28;20907;-72
2021/09/21 11:35:03;;;;;;;2.07;1.70;;;15.90;99.90;;;;;;5016129;28;20440;-72
2021/09/21 11:37:30;;;;;;;1.63;1.53;;;16.10;99.90;;;;;;5016060;28;20202;-72
2021/09/21 11:39:56;;;;;;;1.80;1.70;;;16.30;99.90;;;;;;5016603;28;20404;-72
2021/09/21 11:42:30;;;;;;;2.30;2.00;;;15.90;99.90;;;;;;5016726;28;20421;-72
2021/09/21 11:44:58;;;;;;;1.83;1.67;;;15.90;99.90;;;;;;5015980;28;20421;-72
2021/09/21 11:47:24;;;;;;;2.33;1.60;;;16.40;99.90;;;;;;5016208;28;20416;-72
2021/09/21 11:49:54;;;;;;;1.73;1.63;;;16.40;99.90;;;;;;5016103;28;20409;-72
2021/09/21 11:52:22;;;;;;;2.40;1.67;;;16.10;99.90;;;;;;5016147;28;20167;-73
2021/09/21 11:54:48;;;;;;;1.43;1.33;;;16.60;99.90;;;;;;5015729;28;20440;-73
2021/09/21 11:57:13;;;;;;;3.37;1.87;;;16.90;99.90;;;;;;5015738;28;20825;-72
2021/09/21 11:59:41;;;;;;;2.20;1.70;;;16.10;99.90;;;;;;5016311;28;20177;-71
2021/09/21 12:02:06;;;;;;;1.63;1.53;;;16.50;99.90;;;;;;5015923;28;20164;-72
2021/09/21 12:04:32;;;;;;;1.90;1.77;;;16.50;99.90;;;;;;5015806;28;20498;-73
2021/09/21 12:06:58;;;;;;;1.80;1.70;;;16.80;99.90;;;;;;5015657;28;20178;-72
2021/09/21 12:09:25;;;;;;;2.40;2.00;;;16.20;99.90;;;;;;5015427;28;20207;-73
2021/09/21 12:11:51;;;;;;;1.60;1.50;;;16.30;99.90;;;;;;5015704;28;20417;-73
2021/09/21 12:14:17;;;;;;;1.67;1.40;;;16.30;99.90;;;;;;5015319;28;20544;-72
2021/09/21 12:16:50;;;;;;;1.53;1.43;;;16.60;99.90;;;;;;5015122;28;20821;-73
2021/09/21 12:19:17;;;;;;;2.40;2.00;;;16.40;99.90;;;;;;5015346;28;20507;-71
2021/09/21 12:21:44;;;;;;;1.77;1.63;;;16.30;99.90;;;;;;5015199;28;20401;-72
2021/09/21 12:24:09;;;;;;;2.70;1.83;;;16.60;99.90;;;;;;5015076;28;20415;-72
2021/09/21 12:26:35;;;;;;;1.90;1.70;;;16.40;99.90;;;;;;5014687;28;20410;-73
2021/09/21 12:29:01;;;;;;;1.90;1.30;;;16.30;99.90;;;;;;5014066;28;20474;-73
2021/09/21 12:31:29;;;;;;;2.37;1.70;;;16.40;99.90;;;;;;5014145;28;20640;-72
2021/09/21 12:33:57;;;;;;;2.43;1.90;;;16.40;99.90;;;;;;5015339;28;20542;-72
2021/09/21 12:36:25;;;;;;;2.10;1.60;;;16.10;99.90;;;;;;5014625;28;20460;-73
2021/09/21 12:39:10;;;;;;;1.93;1.23;;;16.10;99.90;;;;;;5013179;28;20939;-73
2021/09/21 12:41:40;;;;;;;2.07;1.63;;;16.20;99.90;;;;;;5013557;28;20508;-72
2021/09/21 12:44:07;;;;;;;1.90;1.50;;;16.50;99.90;;;;;;5013311;28;20410;-73
2021/09/21 12:46:33;;;;;;;2.17;1.47;;;16.20;99.90;;;;;;5014256;28;20431;-73
2021/09/21 12:48:59;;;;;;;1.70;1.60;;;15.80;99.90;;;;;;5014497;28;20755;-72
2021/09/21 12:51:40;;;;;;;1.80;1.40;;;15.90;99.90;;;;;;5013831;28;20567;-73
2021/09/21 12:54:10;;;;;;;2.47;1.50;;;16.00;99.90;;;;;;4995475;28;20420;-73
2021/09/21 12:56:35;;;;;;;1.50;1.40;;;16.40;99.90;;;;;;5013426;28;20492;-70
2021/09/21 12:59:06;;;;;;;1.33;1.23;;;15.90;99.90;;;;;;5013151;28;20442;-71
2021/09/21 13:01:31;;;;;;;1.50;1.40;;;16.20;99.90;;;;;;5013948;28;20170;-71
2021/09/21 13:03:57;;;;;;;1.63;1.53;;;16.30;99.90;;;;;;5013081;28;20975;-71